createdAt,value
2022-12-19T00:00:44.431Z,20.80
2022-12-19T00:03:13.057Z,18.60
2022-12-19T00:05:43.580Z,21.38
2022-12-19T00:08:18.138Z,18.13
2022-12-19T00:10:56.079Z,17.05
2022-12-19T00:13:25.239Z,16.25
2022-12-19T00:15:53.933Z,18.08
2022-12-19T00:18:22.766Z,16.85
2022-12-19T00:21:00.760Z,19.63
2022-12-19T00:23:31.800Z,16.33
2022-12-19T00:26:15.989Z,16.98
2022-12-19T00:28:46.452Z,17.40
2022-12-19T00:31:17.308Z,18.88
2022-12-19T00:33:49.415Z,18.35
2022-12-19T00:36:22.907Z,18.40
2022-12-19T00:38:53.263Z,18.58
2022-12-19T00:41:24.161Z,20.05
2022-12-19T00:43:55.134Z,16.27
2022-12-19T00:46:24.219Z,19.35
2022-12-19T00:48:52.828Z,16.67
2022-12-19T00:51:25.115Z,18.65
2022-12-19T00:53:55.634Z,20.10
2022-12-19T00:56:27.432Z,20.17
2022-12-19T00:58:56.674Z,17.55
2022-12-19T01:01:28.514Z,17.98
2022-12-19T01:04:27.220Z,18.08
2022-12-19T01:06:49.472Z,18.75
2022-12-19T01:09:18.047Z,19.23
2022-12-19T01:12:04.430Z,18.83
2022-12-19T01:14:32.783Z,17.25
2022-12-19T01:17:02.514Z,19.70
2022-12-19T01:19:30.766Z,17.38
2022-12-19T01:22:00.386Z,19.08
2022-12-19T01:24:29.687Z,19.67
2022-12-19T01:26:58.245Z,16.63
2022-12-19T01:29:28.603Z,16.52
2022-12-19T01:31:56.844Z,20.98
2022-12-19T01:34:25.550Z,18.85
2022-12-19T01:36:54.141Z,18.15
2022-12-19T01:39:24.867Z,17.88
2022-12-19T01:41:56.238Z,17.13
2022-12-19T01:44:25.715Z,19.13
2022-12-19T01:46:58.159Z,21.65
2022-12-19T01:49:32.519Z,16.85
2022-12-19T01:54:36.927Z,12.32
2022-12-19T01:57:11.855Z,18.98
2022-12-19T01:59:45.385Z,16.75
2022-12-19T02:02:20.671Z,16.93
2022-12-19T02:04:49.649Z,18.85
2022-12-19T02:07:21.126Z,17.60
2022-12-19T02:09:57.827Z,18.25
2022-12-19T02:12:39.004Z,15.30
2022-12-19T02:15:11.994Z,16.23
2022-12-19T02:17:57.636Z,17.15
2022-12-19T02:21:21.304Z,16.20
2022-12-19T02:24:37.749Z,16.75
2022-12-19T02:27:46.702Z,15.45
2022-12-19T02:30:17.299Z,17.67
2022-12-19T02:33:01.846Z,18.48
2022-12-19T02:38:15.900Z,10.88
2022-12-19T02:40:51.905Z,18.73
2022-12-19T02:43:28.154Z,18.05
2022-12-19T02:45:58.777Z,18.73
2022-12-19T02:48:29.542Z,17.77
2022-12-19T02:50:59.619Z,18.50
2022-12-19T02:53:27.882Z,21.13
2022-12-19T02:56:23.063Z,18.65
2022-12-19T03:01:48.688Z,12.77
2022-12-19T03:04:36.854Z,14.50
2022-12-19T03:07:19.138Z,16.13
2022-12-19T03:09:57.946Z,17.10
2022-12-19T03:12:33.909Z,19.33
2022-12-19T03:15:03.748Z,18.40
2022-12-19T03:17:37.602Z,18.23
2022-12-19T03:20:17.437Z,16.33
2022-12-19T03:22:46.058Z,17.08
2022-12-19T03:25:14.784Z,19.20
2022-12-19T03:27:44.480Z,18.08
2022-12-19T03:30:14.984Z,16.58
2022-12-19T03:32:47.605Z,20.42
2022-12-19T03:35:21.617Z,17.50
2022-12-19T03:37:53.672Z,20.77
2022-12-19T03:40:26.121Z,18.65
2022-12-19T03:43:11.385Z,20.73
2022-12-19T03:45:49.614Z,24.27
2022-12-19T03:48:23.466Z,19.98
2022-12-19T03:51:04.618Z,21.52
2022-12-19T03:53:58.255Z,21.63
2022-12-19T03:56:37.004Z,18.38
2022-12-19T03:59:10.963Z,18.20
2022-12-19T04:01:41.175Z,20.17
2022-12-19T04:04:11.044Z,22.58
2022-12-19T04:06:44.018Z,22.38
2022-12-19T04:09:16.733Z,24.77
2022-12-19T04:11:54.251Z,21.80
2022-12-19T04:14:29.800Z,19.75
2022-12-19T04:17:08.253Z,20.23
2022-12-19T04:19:43.771Z,17.63
2022-12-19T04:22:19.335Z,22.55
2022-12-19T04:24:49.973Z,18.35
2022-12-19T04:27:19.937Z,22.75
2022-12-19T04:29:49.445Z,18.77
2022-12-19T04:32:17.936Z,20.67
2022-12-19T04:34:46.467Z,21.55
2022-12-19T04:37:16.199Z,19.30
2022-12-19T04:39:47.172Z,20.08
2022-12-19T04:42:15.731Z,19.90
2022-12-19T04:44:44.324Z,25.10
2022-12-19T04:47:12.984Z,20.90
2022-12-19T04:49:41.468Z,21.73
2022-12-19T04:52:09.783Z,22.65
2022-12-19T04:54:39.383Z,18.38
2022-12-19T04:57:08.077Z,23.23
2022-12-19T04:59:36.573Z,23.95
2022-12-19T05:02:07.908Z,22.77
2022-12-19T05:04:36.286Z,19.95
2022-12-19T05:07:04.837Z,20.15
2022-12-19T05:09:34.200Z,19.08
2022-12-19T05:12:03.787Z,20.30
2022-12-19T05:14:32.025Z,19.98
2022-12-19T05:17:01.566Z,20.83
2022-12-19T05:19:30.447Z,23.88
2022-12-19T05:21:59.424Z,21.05
2022-12-19T05:24:28.364Z,18.23
2022-12-19T05:26:56.881Z,18.25
2022-12-19T05:29:26.545Z,21.27
2022-12-19T05:31:55.104Z,22.23
2022-12-19T05:34:24.630Z,22.50
2022-12-19T05:36:53.163Z,20.48
2022-12-19T05:39:21.718Z,22.48
2022-12-19T05:41:50.266Z,21.10
2022-12-19T05:44:18.832Z,24.23
2022-12-19T05:46:48.544Z,22.92
2022-12-19T05:49:16.958Z,20.65
2022-12-19T05:51:48.335Z,19.67
2022-12-19T05:54:16.973Z,17.08
2022-12-19T05:56:45.842Z,17.58
2022-12-19T05:59:14.506Z,20.70
2022-12-19T06:01:43.113Z,19.27
2022-12-19T06:04:12.818Z,20.08
2022-12-19T06:06:41.715Z,23.58
2022-12-19T06:09:10.320Z,17.55
2022-12-19T06:11:38.862Z,19.98
2022-12-19T06:14:07.841Z,19.42
2022-12-19T06:16:36.416Z,18.13
2022-12-19T06:19:05.071Z,20.23
2022-12-19T06:21:34.741Z,16.73
2022-12-19T06:24:03.335Z,18.15
2022-12-19T06:26:31.963Z,17.83
2022-12-19T06:29:00.590Z,17.98
2022-12-19T06:31:29.300Z,16.63
2022-12-19T06:33:58.035Z,18.90
2022-12-19T06:36:28.988Z,18.30
2022-12-19T06:38:59.895Z,16.42
2022-12-19T06:41:46.604Z,17.58
2022-12-19T06:44:18.087Z,17.65
2022-12-19T06:46:46.809Z,20.10
2022-12-19T06:49:15.769Z,19.48
2022-12-19T06:51:44.617Z,18.17
2022-12-19T06:54:15.882Z,22.00
2022-12-19T06:56:45.286Z,19.67
2022-12-19T06:59:16.199Z,17.98
2022-12-19T07:02:06.728Z,18.13
2022-12-19T07:04:41.544Z,18.02
2022-12-19T07:07:10.279Z,17.13
2022-12-19T07:09:40.052Z,19.65
2022-12-19T07:12:09.391Z,19.45
2022-12-19T07:14:38.166Z,17.83
2022-12-19T07:17:07.259Z,18.25
2022-12-19T07:19:37.098Z,19.17
2022-12-19T07:22:06.488Z,19.05
2022-12-19T07:24:36.949Z,19.30
2022-12-19T07:27:09.768Z,17.50
2022-12-19T07:29:38.090Z,19.90
2022-12-19T07:32:06.823Z,18.77
2022-12-19T07:34:35.397Z,17.30
2022-12-19T07:37:03.594Z,17.17
2022-12-19T07:39:32.205Z,20.65
2022-12-19T07:42:00.780Z,18.65
2022-12-19T07:44:38.577Z,19.67
2022-12-19T07:47:09.939Z,18.75
2022-12-19T07:49:38.274Z,17.63
2022-12-19T07:52:08.347Z,18.15
2022-12-19T07:54:37.042Z,17.20
2022-12-19T07:57:05.800Z,18.40
2022-12-19T07:59:38.826Z,18.67
2022-12-19T08:02:09.140Z,17.07
2022-12-19T08:04:37.584Z,20.48
2022-12-19T08:07:06.175Z,19.85
2022-12-19T08:09:34.764Z,18.77
2022-12-19T08:12:04.256Z,17.80
2022-12-19T08:14:32.635Z,18.88
2022-12-19T08:19:51.530Z,21.48
2022-12-19T08:22:20.155Z,20.95
2022-12-19T08:24:48.615Z,19.20
2022-12-19T08:27:18.009Z,18.80
2022-12-19T08:29:47.549Z,18.70
2022-12-19T08:32:21.166Z,19.83
2022-12-19T08:34:52.042Z,18.33
2022-12-19T08:37:20.597Z,23.33
2022-12-19T08:39:48.800Z,20.05
2022-12-19T08:42:17.526Z,18.60
2022-12-19T08:44:45.844Z,22.52
2022-12-19T08:47:14.631Z,19.25
2022-12-19T08:49:43.180Z,23.80
2022-12-19T08:52:12.937Z,21.00
2022-12-19T08:54:41.553Z,19.80
2022-12-19T08:57:10.811Z,20.10
2022-12-19T08:59:39.417Z,19.10
2022-12-19T09:02:10.570Z,21.73
2022-12-19T09:06:05.128Z,19.10
2022-12-19T09:07:29.174Z,19.48
2022-12-19T09:09:57.360Z,17.88
2022-12-19T09:12:25.858Z,19.58
2022-12-19T09:14:54.413Z,18.60
2022-12-19T09:17:22.935Z,20.88
2022-12-19T09:19:51.772Z,18.55
2022-12-19T09:22:21.035Z,20.30
2022-12-19T09:24:57.144Z,18.70
2022-12-19T09:27:25.536Z,20.15
2022-12-19T09:29:54.125Z,19.10
2022-12-19T09:32:22.614Z,17.58
2022-12-19T09:34:51.173Z,21.40
2022-12-19T09:37:19.957Z,22.50
2022-12-19T09:39:49.349Z,19.73
2022-12-19T09:42:47.838Z,18.02
2022-12-19T09:45:33.632Z,18.95
2022-12-19T09:48:03.069Z,20.45
2022-12-19T09:50:52.966Z,19.20
2022-12-19T09:53:29.068Z,18.15
2022-12-19T09:56:00.991Z,19.30
2022-12-19T09:58:42.256Z,19.85
2022-12-19T10:01:22.385Z,19.67
2022-12-19T10:04:02.253Z,19.92
2022-12-19T10:07:20.439Z,20.70
2022-12-19T10:10:57.290Z,17.98
2022-12-19T10:12:44.384Z,16.77
2022-12-19T10:15:26.912Z,18.75
2022-12-19T10:18:26.437Z,19.85
2022-12-19T10:21:05.968Z,18.40
2022-12-19T10:24:21.201Z,17.48
2022-12-19T10:26:53.624Z,19.58
2022-12-19T10:29:49.672Z,19.42
2022-12-19T10:32:31.352Z,20.05
2022-12-19T10:34:59.924Z,19.58
2022-12-19T10:37:40.971Z,18.25
2022-12-19T10:40:27.943Z,16.95
2022-12-19T10:43:01.380Z,16.77
2022-12-19T10:45:44.139Z,24.25
2022-12-19T10:48:27.730Z,29.02
2022-12-19T10:51:00.669Z,21.20
2022-12-19T10:53:35.379Z,22.42
2022-12-19T10:56:13.777Z,24.30
2022-12-19T10:58:45.747Z,20.48
2022-12-19T11:01:16.930Z,18.42
2022-12-19T11:03:52.521Z,16.90
2022-12-19T11:06:51.115Z,18.63
2022-12-19T11:09:29.943Z,17.67
2022-12-19T11:15:49.692Z,17.42
2022-12-19T11:20:21.566Z,17.67
2022-12-19T11:26:10.230Z,18.15
2022-12-19T11:29:30.549Z,17.13
2022-12-19T11:29:39.997Z,16.85
2022-12-19T11:30:06.585Z,17.73
2022-12-19T11:32:43.075Z,14.93
2022-12-19T11:35:24.491Z,18.80
2022-12-19T11:37:58.019Z,17.45
2022-12-19T11:40:37.987Z,21.60
2022-12-19T11:46:19.447Z,22.83
2022-12-19T11:48:54.710Z,19.05
2022-12-19T11:51:29.122Z,20.50
2022-12-19T11:56:34.704Z,23.83
2022-12-19T11:59:13.328Z,29.05
2022-12-19T12:01:53.465Z,21.88
2022-12-19T12:05:23.707Z,22.70
2022-12-19T12:08:57.660Z,29.63
2022-12-19T12:20:11.238Z,29.67
2022-12-19T12:23:05.699Z,20.02
2022-12-19T12:23:23.455Z,16.95
2022-12-19T12:31:21.921Z,18.15
2022-12-19T12:31:41.204Z,17.50
2022-12-19T12:31:43.273Z,17.17
2022-12-19T12:31:46.928Z,17.90
2022-12-19T12:38:45.850Z,17.13
2022-12-19T12:41:45.378Z,18.60
2022-12-19T12:44:14.798Z,17.23
2022-12-19T12:46:49.512Z,18.55
2022-12-19T12:49:36.952Z,18.65
2022-12-19T12:52:09.016Z,18.65
2022-12-19T12:54:43.172Z,17.25
2022-12-19T12:57:22.131Z,16.48
2022-12-19T13:00:27.965Z,17.13
2022-12-19T13:03:04.978Z,17.48
2022-12-19T13:05:53.769Z,17.80
2022-12-19T13:08:36.229Z,15.80
2022-12-19T13:11:07.496Z,19.63
2022-12-19T13:13:55.116Z,18.75
2022-12-19T13:16:54.516Z,18.83
2022-12-19T13:19:28.687Z,18.55
2022-12-19T13:24:51.043Z,16.00
2022-12-19T13:27:50.431Z,20.50
2022-12-19T13:30:21.383Z,20.55
2022-12-19T13:33:11.091Z,18.80
2022-12-19T13:36:06.357Z,18.55
2022-12-19T13:39:52.265Z,18.38
2022-12-19T13:41:47.215Z,19.50
2022-12-19T13:44:19.467Z,20.30
2022-12-19T13:46:48.997Z,19.42
2022-12-19T13:49:27.528Z,20.25
2022-12-19T13:52:00.072Z,20.48
2022-12-19T13:54:32.824Z,18.10
2022-12-19T13:57:09.066Z,20.25
2022-12-19T13:59:40.754Z,19.90
2022-12-19T14:02:45.278Z,19.65
2022-12-19T14:05:34.125Z,18.25
2022-12-19T14:08:21.685Z,20.73
2022-12-19T14:11:33.672Z,18.95
2022-12-19T14:14:12.720Z,19.63
2022-12-19T14:19:23.726Z,14.50
2022-12-19T14:22:05.491Z,17.73
2022-12-19T14:24:41.520Z,17.17
2022-12-19T14:28:24.225Z,19.33
2022-12-19T14:30:30.271Z,17.10
2022-12-19T14:33:39.694Z,17.38
2022-12-19T14:36:11.293Z,19.00
2022-12-19T14:39:21.976Z,19.67
2022-12-19T14:42:02.469Z,17.88
2022-12-19T14:54:02.598Z,19.92
2022-12-19T14:54:16.319Z,20.70
2022-12-19T14:54:22.085Z,20.00
2022-12-19T14:54:37.844Z,20.90
2022-12-19T14:59:05.336Z,20.73
2022-12-19T15:01:36.705Z,20.17
2022-12-19T15:04:48.112Z,20.95
2022-12-19T15:07:12.136Z,20.20
2022-12-19T15:11:06.383Z,19.45
2022-12-19T15:14:52.403Z,21.00
2022-12-19T15:16:07.320Z,19.20
2022-12-19T15:18:41.296Z,21.13
2022-12-19T15:21:13.981Z,24.73
2022-12-19T15:23:44.669Z,24.58
2022-12-19T15:26:16.773Z,23.65
2022-12-19T15:28:50.634Z,23.20
2022-12-19T15:31:29.856Z,22.67
2022-12-19T15:36:47.616Z,21.63
2022-12-19T15:39:16.158Z,20.95
2022-12-19T15:41:46.566Z,22.83
2022-12-19T15:44:23.145Z,21.85
2022-12-19T15:46:51.659Z,25.33
2022-12-19T15:49:21.502Z,23.95
2022-12-19T15:51:51.059Z,23.13
2022-12-19T15:54:47.849Z,21.92
2022-12-19T15:57:17.570Z,19.35
2022-12-19T15:59:47.545Z,20.23
2022-12-19T16:02:22.959Z,19.40
2022-12-19T16:04:56.921Z,20.98
2022-12-19T16:07:30.852Z,20.70
2022-12-19T16:09:59.349Z,21.30
2022-12-19T16:12:33.713Z,20.88
2022-12-19T16:15:04.934Z,20.25
2022-12-19T16:17:34.245Z,18.85
2022-12-19T16:20:02.511Z,20.10
2022-12-19T16:22:31.623Z,20.42
2022-12-19T16:25:00.352Z,19.02
2022-12-19T16:27:31.611Z,24.67
2022-12-19T16:30:11.104Z,27.67
2022-12-19T16:32:42.830Z,26.02
2022-12-19T16:35:23.926Z,24.55
2022-12-19T16:38:03.033Z,22.95
2022-12-19T16:40:31.599Z,29.95
2022-12-19T16:43:06.037Z,23.38
2022-12-19T16:48:04.109Z,15.70
2022-12-19T16:50:33.286Z,22.13
2022-12-19T16:53:01.826Z,21.40
2022-12-19T16:55:30.442Z,22.60
2022-12-19T16:57:58.978Z,23.30
2022-12-19T17:00:27.695Z,21.05
2022-12-19T17:03:04.504Z,21.25
2022-12-19T17:05:35.213Z,19.42
2022-12-19T17:08:03.910Z,22.40
2022-12-19T17:10:34.191Z,19.92
2022-12-19T17:13:04.487Z,19.40
2022-12-19T17:15:36.765Z,19.58
2022-12-19T17:18:13.451Z,22.85
2022-12-19T17:20:45.184Z,21.73
2022-12-19T17:23:16.905Z,20.08
2022-12-19T17:25:45.909Z,21.65
2022-12-19T17:28:14.987Z,22.08
2022-12-19T17:30:49.210Z,24.10
2022-12-19T17:33:22.152Z,20.88
2022-12-19T17:35:51.001Z,20.17
2022-12-19T17:38:19.913Z,20.77
2022-12-19T17:40:48.548Z,19.75
2022-12-19T17:43:17.942Z,21.98
2022-12-19T17:45:46.922Z,21.08
2022-12-19T17:48:27.395Z,21.13
2022-12-19T17:50:56.453Z,22.48
2022-12-19T17:53:25.258Z,23.13
2022-12-19T17:55:53.897Z,36.13
2022-12-19T17:58:22.596Z,42.25
2022-12-19T18:00:52.408Z,57.85
2022-12-19T18:03:24.680Z,54.97
2022-12-19T18:05:55.624Z,38.72
2022-12-19T18:08:28.374Z,24.33
2022-12-19T18:11:01.269Z,21.33
2022-12-19T18:13:32.545Z,21.88
2022-12-19T18:16:03.170Z,21.35
2022-12-19T18:18:36.280Z,23.15
2022-12-19T18:21:05.378Z,20.83
2022-12-19T18:23:33.959Z,23.02
2022-12-19T18:26:03.126Z,19.40
2022-12-19T18:28:31.714Z,22.95
2022-12-19T18:31:04.653Z,21.30
2022-12-19T18:33:40.261Z,22.00
2022-12-19T18:36:16.624Z,23.35
2022-12-19T18:38:45.229Z,21.75
2022-12-19T18:41:14.016Z,22.70
2022-12-19T18:43:42.866Z,19.92
2022-12-19T18:46:14.808Z,21.38
2022-12-19T18:48:46.292Z,20.73
2022-12-19T18:51:18.342Z,21.75
2022-12-19T18:53:48.387Z,22.85
2022-12-19T18:56:19.988Z,24.95
2022-12-19T18:58:48.530Z,25.02
2022-12-19T19:01:20.669Z,21.00
2022-12-19T19:03:55.384Z,23.10
2022-12-19T19:06:26.702Z,24.48
2022-12-19T19:08:56.859Z,23.42
2022-12-19T19:11:42.347Z,21.75
2022-12-19T19:14:11.320Z,26.10
2022-12-19T19:16:40.899Z,22.98
2022-12-19T19:19:13.043Z,24.98
2022-12-19T19:21:42.571Z,24.98
2022-12-19T19:24:14.727Z,23.65
2022-12-19T19:26:43.311Z,27.00
2022-12-19T19:29:13.526Z,26.30
2022-12-19T19:31:47.142Z,23.77
2022-12-19T19:34:22.751Z,25.95
2022-12-19T19:36:55.964Z,25.35
2022-12-19T19:39:27.615Z,21.15
2022-12-19T19:41:57.041Z,20.48
2022-12-19T19:44:25.556Z,20.40
2022-12-19T19:46:54.246Z,20.50
2022-12-19T19:49:27.295Z,21.90
2022-12-19T19:52:02.236Z,25.98
2022-12-19T19:54:32.055Z,24.55
2022-12-19T19:57:00.696Z,25.27
2022-12-19T19:59:31.658Z,26.00
2022-12-19T20:02:02.486Z,24.55
2022-12-19T20:04:32.899Z,25.00
2022-12-19T20:07:01.847Z,22.23
2022-12-19T20:09:30.677Z,23.67
2022-12-19T20:12:00.367Z,25.48
2022-12-19T20:14:29.342Z,24.95
2022-12-19T20:16:57.860Z,26.10
2022-12-19T20:19:26.546Z,21.92
2022-12-19T20:21:56.736Z,23.48
2022-12-19T20:24:25.268Z,22.17
2022-12-19T20:26:53.629Z,22.38
2022-12-19T20:29:24.741Z,23.63
2022-12-19T20:31:53.385Z,21.95
2022-12-19T20:34:22.095Z,22.30
2022-12-19T20:36:51.061Z,21.52
2022-12-19T20:39:22.250Z,22.67
2022-12-19T20:41:51.668Z,19.35
2022-12-19T20:44:24.519Z,20.00
2022-12-19T20:46:53.841Z,19.50
2022-12-19T20:49:24.066Z,17.65
2022-12-19T20:51:52.808Z,18.00
2022-12-19T20:54:23.606Z,20.85
2022-12-19T20:56:52.240Z,19.63
2022-12-19T20:59:21.137Z,18.40
2022-12-19T21:01:49.788Z,18.48
2022-12-19T21:04:18.925Z,18.88
2022-12-19T21:06:47.585Z,19.30
2022-12-19T21:09:17.741Z,17.73
2022-12-19T21:11:47.518Z,17.85
2022-12-19T21:14:16.121Z,18.92
2022-12-19T21:16:45.027Z,18.60
2022-12-19T21:19:13.610Z,20.50
2022-12-19T21:21:42.155Z,19.80
2022-12-19T21:24:10.737Z,21.67
2022-12-19T21:26:39.270Z,20.55
2022-12-19T21:29:08.843Z,20.67
2022-12-19T21:31:37.189Z,20.73
2022-12-19T21:34:05.529Z,19.75
2022-12-19T21:36:33.787Z,22.00
2022-12-19T21:39:02.904Z,19.13
2022-12-19T21:41:32.358Z,18.13
2022-12-19T21:44:01.382Z,23.33
2022-12-19T21:46:33.918Z,21.83
2022-12-19T21:49:03.537Z,22.85
2022-12-19T21:51:33.369Z,25.65
2022-12-19T21:54:03.695Z,22.95
2022-12-19T21:56:35.291Z,24.33
2022-12-19T21:59:07.186Z,21.85
2022-12-19T22:01:37.338Z,23.20
2022-12-19T22:04:09.147Z,22.38
2022-12-19T22:06:38.888Z,21.58
2022-12-19T22:09:15.294Z,24.52
2022-12-19T22:11:44.729Z,21.85
2022-12-19T22:14:15.198Z,21.30
2022-12-19T22:16:45.074Z,20.88
2022-12-19T22:19:17.716Z,23.35
2022-12-19T22:21:47.024Z,21.48
2022-12-19T22:24:20.191Z,23.52
2022-12-19T22:26:48.913Z,22.67
2022-12-19T22:29:18.329Z,22.55
2022-12-19T22:31:49.562Z,20.98
2022-12-19T22:34:20.808Z,21.92
2022-12-19T22:36:50.627Z,22.77
2022-12-19T22:39:22.349Z,22.48
2022-12-19T22:41:51.080Z,23.35
2022-12-19T22:44:22.150Z,24.70
2022-12-19T22:46:52.541Z,26.27
2022-12-19T22:49:20.991Z,26.25
2022-12-19T22:51:49.937Z,26.55
2022-12-19T22:54:18.540Z,24.10
2022-12-19T22:56:47.064Z,24.90
2022-12-19T22:59:15.586Z,23.75
2022-12-19T23:01:45.344Z,22.67
2022-12-19T23:04:17.431Z,22.60
2022-12-19T23:06:46.259Z,27.77
2022-12-19T23:09:17.625Z,28.20
2022-12-19T23:11:48.882Z,25.67
2022-12-19T23:14:19.746Z,26.50
2022-12-19T23:16:48.683Z,21.50
2022-12-19T23:19:18.420Z,23.80
2022-12-19T23:21:47.148Z,22.63
2022-12-19T23:24:15.876Z,23.23
2022-12-19T23:26:45.308Z,24.20
2022-12-19T23:29:16.150Z,23.23
2022-12-19T23:31:47.701Z,23.75
2022-12-19T23:34:18.002Z,23.67
2022-12-19T23:39:36.774Z,22.15
2022-12-19T23:42:05.570Z,25.13
2022-12-19T23:44:34.407Z,25.38
2022-12-19T23:47:04.123Z,23.55
2022-12-19T23:49:34.653Z,26.27
2022-12-19T23:52:03.429Z,23.25
2022-12-19T23:54:32.235Z,24.42
2022-12-19T23:57:00.783Z,25.70
2022-12-19T23:59:29.199Z,25.40
